Time;durP1;ratioP1;P1;durP2;ratioP2;P2;SDS_P1;SDS_P2;PMS_P1;PMS_P2;Temp;Humidity;BMP_temperature;BMP_pressure;BME280_temperature;BME280_humidity;BME280_pressure;Samples;Min_cycle;Max_cycle;Signal;HPM_P1;HPM_P2
2021/03/29 00:00:05;;;;;;;13.20;4.57;;;10.40;65.80;;;;;;4992871;28;20610;-76
2021/03/29 00:02:31;;;;;;;12.43;4.43;;;10.30;65.70;;;;;;4992119;28;20115;-73
2021/03/29 00:04:57;;;;;;;12.00;4.30;;;10.30;65.80;;;;;;5011388;28;20486;-73
2021/03/29 00:07:23;;;;;;;13.60;4.33;;;10.20;65.70;;;;;;5009846;28;20897;-74
2021/03/29 00:09:50;;;;;;;12.17;4.90;;;10.20;65.80;;;;;;5011191;28;20046;-73
2021/03/29 00:12:18;;;;;;;8.57;3.70;;;10.20;65.80;;;;;;5009330;28;20045;-74
2021/03/29 00:14:44;;;;;;;11.90;4.63;;;10.20;65.80;;;;;;5010820;28;20029;-73
2021/03/29 00:17:13;;;;;;;14.00;4.53;;;10.10;65.70;;;;;;4991055;28;20022;-73
2021/03/29 00:19:39;;;;;;;15.87;3.90;;;10.10;65.70;;;;;;5011096;28;20066;-74
2021/03/29 00:22:05;;;;;;;11.27;3.20;;;10.10;65.70;;;;;;5009639;28;20124;-78
2021/03/29 00:24:32;;;;;;;11.17;5.00;;;10.10;65.50;;;;;;4981520;28;20038;-74
2021/03/29 00:26:59;;;;;;;11.47;4.23;;;10.10;65.80;;;;;;4978537;28;20042;-74
2021/03/29 00:29:24;;;;;;;12.57;3.07;;;10.10;65.70;;;;;;4989732;28;20017;-76
2021/03/29 00:31:51;;;;;;;11.33;3.07;;;10.10;65.60;;;;;;4990216;28;20029;-73
2021/03/29 00:34:17;;;;;;;12.73;3.00;;;10.10;65.40;;;;;;4991439;28;20069;-73
2021/03/29 00:36:43;;;;;;;11.33;3.10;;;10.10;65.50;;;;;;4993075;28;20044;-73
2021/03/29 00:39:10;;;;;;;10.97;2.87;;;10.10;65.60;;;;;;4990944;28;20030;-73
2021/03/29 00:41:36;;;;;;;14.60;3.23;;;10.10;65.80;;;;;;4991098;28;20410;-75
2021/03/29 00:44:03;;;;;;;11.70;3.40;;;10.00;65.80;;;;;;5008574;28;20037;-73
2021/03/29 00:46:30;;;;;;;12.67;3.97;;;10.00;66.00;;;;;;4991149;28;20042;-73
2021/03/29 00:48:57;;;;;;;13.10;3.83;;;9.90;66.10;;;;;;5009698;28;20041;-75
2021/03/29 00:51:26;;;;;;;9.63;4.23;;;9.90;66.30;;;;;;4992229;28;20037;-72
2021/03/29 00:53:54;;;;;;;10.13;2.43;;;9.90;66.50;;;;;;4988729;28;20037;-74
2021/03/29 00:56:21;;;;;;;11.03;2.67;;;9.80;66.30;;;;;;5009059;28;20044;-73
2021/03/29 00:58:49;;;;;;;12.40;3.20;;;9.80;66.40;;;;;;5008528;28;20032;-73
2021/03/29 01:01:30;;;;;;;8.47;3.43;;;9.80;66.50;;;;;;5008879;28;20042;-73
2021/03/29 01:04:01;;;;;;;10.93;3.17;;;9.80;66.60;;;;;;5008970;28;20014;-73
2021/03/29 01:06:32;;;;;;;11.27;3.43;;;9.80;66.70;;;;;;5009255;28;20048;-74
2021/03/29 01:09:04;;;;;;;10.07;3.03;;;9.80;66.80;;;;;;5008317;28;20084;-73
2021/03/29 01:11:33;;;;;;;8.73;2.30;;;9.80;66.70;;;;;;4990415;28;20022;-72
2021/03/29 01:14:22;;;;;;;8.97;2.97;;;9.80;66.80;;;;;;5006001;28;20076;-72
2021/03/29 01:16:54;;;;;;;11.43;2.97;;;9.70;66.90;;;;;;5009794;28;20030;-74
2021/03/29 01:19:41;;;;;;;8.47;2.40;;;9.70;66.90;;;;;;5002241;28;20470;-73
2021/03/29 01:22:10;;;;;;;9.07;2.37;;;9.70;66.80;;;;;;4991928;28;20022;-71
2021/03/29 01:24:52;;;;;;;9.83;2.27;;;9.70;66.80;;;;;;5015129;28;20033;-73
2021/03/29 01:27:22;;;;;;;12.52;1.98;;;9.70;66.70;;;;;;5009467;28;20483;-72
2021/03/29 01:29:49;;;;;;;9.93;2.77;;;9.70;66.60;;;;;;5008023;28;20117;-73
2021/03/29 01:32:15;;;;;;;9.77;2.33;;;9.70;66.70;;;;;;4990547;28;20026;-77
2021/03/29 01:34:42;;;;;;;10.07;1.87;;;9.70;66.70;;;;;;5009831;28;20084;-74
2021/03/29 01:37:09;;;;;;;9.50;2.67;;;9.70;66.70;;;;;;4991632;28;20670;-73
2021/03/29 01:39:36;;;;;;;10.97;2.60;;;9.60;66.90;;;;;;5009091;28;20030;-73
2021/03/29 01:42:02;;;;;;;6.80;2.43;;;9.60;67.00;;;;;;5008598;28;20072;-73
2021/03/29 01:44:29;;;;;;;8.90;2.43;;;9.60;67.10;;;;;;4960289;28;20176;-72
2021/03/29 01:46:55;;;;;;;9.93;2.07;;;9.60;67.10;;;;;;4991588;28;20046;-73
2021/03/29 01:49:22;;;;;;;6.37;2.10;;;9.60;67.10;;;;;;4990036;28;20042;-74
2021/03/29 01:51:49;;;;;;;9.60;3.03;;;9.60;67.00;;;;;;5007953;28;20502;-75
2021/03/29 01:54:17;;;;;;;10.97;2.73;;;9.60;67.20;;;;;;5008643;28;20180;-78
2021/03/29 01:56:43;;;;;;;7.63;2.80;;;9.60;67.20;;;;;;4989269;28;20053;-73
2021/03/29 01:59:09;;;;;;;9.47;2.40;;;9.60;67.30;;;;;;5006569;28;20462;-75
2021/03/29 02:01:35;;;;;;;10.57;2.63;;;9.60;67.20;;;;;;5009405;28;20076;-72
2021/03/29 02:04:01;;;;;;;8.13;1.93;;;9.50;67.20;;;;;;5005851;28;20038;-72
2021/03/29 02:06:27;;;;;;;10.70;2.33;;;9.50;67.20;;;;;;4989522;28;20031;-72
2021/03/29 02:08:55;;;;;;;7.20;2.10;;;9.50;67.40;;;;;;4993370;28;20426;-74
2021/03/29 02:11:21;;;;;;;8.23;3.30;;;9.50;67.50;;;;;;5010685;28;20573;-77
2021/03/29 02:13:49;;;;;;;6.17;2.07;;;9.50;67.60;;;;;;4994520;28;20474;-73
2021/03/29 02:16:16;;;;;;;10.17;2.03;;;9.50;67.60;;;;;;4996250;28;20092;-73
2021/03/29 02:18:44;;;;;;;8.50;1.57;;;9.50;67.50;;;;;;4994401;28;20029;-72
2021/03/29 02:21:14;;;;;;;12.13;2.23;;;9.50;67.30;;;;;;5013953;28;20085;-74
2021/03/29 02:23:42;;;;;;;6.37;1.80;;;9.50;67.40;;;;;;4994087;28;20026;-72
2021/03/29 02:26:09;;;;;;;7.37;2.60;;;9.40;67.40;;;;;;4993991;28;20048;-72
2021/03/29 02:28:35;;;;;;;8.67;2.63;;;9.40;67.60;;;;;;4991518;28;20062;-73
2021/03/29 02:31:03;;;;;;;6.77;1.70;;;9.40;67.70;;;;;;5006221;28;20478;-74
2021/03/29 02:33:31;;;;;;;8.40;2.43;;;9.30;67.80;;;;;;4997514;28;20038;-73
2021/03/29 02:35:57;;;;;;;9.67;2.40;;;9.30;67.80;;;;;;4976412;28;20038;-73
2021/03/29 02:38:23;;;;;;;12.90;2.50;;;9.30;68.00;;;;;;4988821;28;20040;-78
2021/03/29 02:40:51;;;;;;;7.70;1.90;;;9.20;68.10;;;;;;5011988;28;20034;-73
2021/03/29 02:43:18;;;;;;;7.63;2.13;;;9.30;68.20;;;;;;4979324;28;20097;-73
2021/03/29 02:45:49;;;;;;;7.03;2.00;;;9.20;68.20;;;;;;4993755;28;20042;-73
2021/03/29 02:48:17;;;;;;;8.07;2.00;;;9.20;68.40;;;;;;4995345;28;20504;-74
2021/03/29 02:50:44;;;;;;;9.50;1.97;;;9.20;68.60;;;;;;4995057;28;20025;-73
2021/03/29 02:53:19;;;;;;;7.70;2.50;;;9.20;68.70;;;;;;5012194;28;20026;-74
2021/03/29 02:55:46;;;;;;;8.20;2.20;;;9.10;68.80;;;;;;5010998;28;20087;-74
2021/03/29 02:58:15;;;;;;;7.40;1.80;;;9.10;68.80;;;;;;5010980;28;20072;-75
2021/03/29 03:00:41;;;;;;;8.47;2.33;;;9.10;68.90;;;;;;5008209;28;20119;-75
2021/03/29 03:03:08;;;;;;;6.43;1.87;;;9.10;69.00;;;;;;4998882;28;20045;-73
2021/03/29 03:05:36;;;;;;;8.93;2.23;;;9.10;69.10;;;;;;5008789;28;20045;-74
2021/03/29 03:08:04;;;;;;;7.03;1.87;;;9.10;69.20;;;;;;5011869;28;20034;-74
2021/03/29 03:10:30;;;;;;;9.13;2.20;;;9.10;69.20;;;;;;5005836;28;20038;-74
2021/03/29 03:12:57;;;;;;;9.00;2.00;;;9.10;69.20;;;;;;4994114;28;20076;-74
2021/03/29 03:15:26;;;;;;;8.47;1.53;;;9.10;69.00;;;;;;4977232;28;20037;-74
2021/03/29 03:17:53;;;;;;;6.90;1.67;;;9.10;69.10;;;;;;5011059;28;20025;-74
2021/03/29 03:20:19;;;;;;;7.13;1.80;;;9.10;69.10;;;;;;5012322;28;20037;-74
2021/03/29 03:23:09;;;;;;;7.40;1.90;;;9.10;69.10;;;;;;5009681;28;20922;-74
2021/03/29 03:25:37;;;;;;;5.23;1.60;;;9.10;69.30;;;;;;5010331;28;20045;-74
2021/03/29 03:28:09;;;;;;;6.97;1.77;;;9.00;69.30;;;;;;5010269;28;20036;-73
2021/03/29 03:30:44;;;;;;;11.43;2.07;;;9.10;69.40;;;;;;5010663;28;20429;-74
2021/03/29 03:33:13;;;;;;;5.83;1.33;;;9.00;69.40;;;;;;4993386;28;20029;-74
2021/03/29 03:35:41;;;;;;;7.57;1.60;;;9.00;69.40;;;;;;5008978;28;20084;-73
2021/03/29 03:38:12;;;;;;;10.47;1.77;;;9.00;69.60;;;;;;4993912;28;20066;-73
2021/03/29 03:40:41;;;;;;;6.47;1.60;;;9.00;69.70;;;;;;5010781;28;20040;-74
2021/03/29 03:43:08;;;;;;;8.07;1.70;;;9.00;69.80;;;;;;5011481;28;20061;-73
2021/03/29 03:45:58;;;;;;;7.77;1.70;;;8.90;69.80;;;;;;4992423;28;20049;-74
2021/03/29 03:48:25;;;;;;;6.83;1.67;;;8.90;69.90;;;;;;4963442;28;20042;-73
2021/03/29 03:50:51;;;;;;;9.53;1.73;;;8.90;69.90;;;;;;5010157;28;20282;-72
2021/03/29 03:53:20;;;;;;;6.87;1.40;;;8.90;70.00;;;;;;5009952;28;20022;-72
2021/03/29 03:55:48;;;;;;;5.70;1.50;;;8.90;70.10;;;;;;5005658;28;20040;-71
2021/03/29 03:58:16;;;;;;;5.63;1.60;;;8.90;70.10;;;;;;4993456;28;20033;-72
2021/03/29 04:00:41;;;;;;;6.97;1.57;;;8.80;70.30;;;;;;5010342;28;20041;-72
2021/03/29 04:03:07;;;;;;;6.63;1.40;;;8.80;70.30;;;;;;5010618;28;20429;-75
2021/03/29 04:05:33;;;;;;;10.23;1.73;;;8.80;70.40;;;;;;4988221;28;20049;-76
2021/03/29 04:07:59;;;;;;;5.57;1.57;;;8.80;70.50;;;;;;4992754;28;20030;-72
2021/03/29 04:10:43;;;;;;;5.10;1.33;;;8.80;70.60;;;;;;5009971;28;20041;-73
2021/03/29 04:13:29;;;;;;;7.77;1.70;;;8.80;70.80;;;;;;5000096;28;20041;-72
2021/03/29 04:16:06;;;;;;;9.47;2.37;;;8.70;70.80;;;;;;5010282;28;20034;-72
2021/03/29 04:18:32;;;;;;;8.93;1.43;;;8.80;70.70;;;;;;5001402;28;20095;-72
2021/03/29 04:20:59;;;;;;;7.87;1.80;;;8.80;70.70;;;;;;4991638;28;20030;-72
2021/03/29 04:23:28;;;;;;;5.90;1.77;;;8.80;70.90;;;;;;4992409;28;20030;-72
2021/03/29 04:25:54;;;;;;;7.63;1.60;;;8.80;70.80;;;;;;4989462;28;20130;-72
2021/03/29 04:28:21;;;;;;;8.43;1.60;;;8.80;70.80;;;;;;4990716;28;20432;-72
2021/03/29 04:30:47;;;;;;;6.40;1.40;;;8.80;70.90;;;;;;4992528;28;20030;-72
2021/03/29 04:33:13;;;;;;;6.80;1.40;;;8.80;70.90;;;;;;5009974;28;20156;-72
2021/03/29 04:35:39;;;;;;;5.37;1.57;;;8.80;71.10;;;;;;4991680;28;20499;-76
2021/03/29 04:38:05;;;;;;;9.37;1.70;;;8.80;71.20;;;;;;5010233;28;20109;-73
2021/03/29 04:40:32;;;;;;;6.93;1.80;;;8.70;71.20;;;;;;4993156;28;20128;-73
2021/03/29 04:42:58;;;;;;;10.70;1.90;;;8.70;71.40;;;;;;4991767;28;20454;-75
2021/03/29 04:45:24;;;;;;;6.67;1.43;;;8.70;71.50;;;;;;4992113;28;20057;-73
2021/03/29 04:47:51;;;;;;;7.77;1.47;;;8.70;71.40;;;;;;5007584;28;20033;-73
2021/03/29 04:50:18;;;;;;;6.00;1.60;;;8.60;71.40;;;;;;5009466;28;20018;-72
2021/03/29 04:52:44;;;;;;;5.97;1.90;;;8.60;71.60;;;;;;5009610;28;20030;-72
2021/03/29 04:55:12;;;;;;;7.50;1.57;;;8.70;71.60;;;;;;4972142;28;20129;-74
2021/03/29 04:57:38;;;;;;;6.97;1.73;;;8.60;71.60;;;;;;5007583;28;20148;-78
2021/03/29 05:00:06;;;;;;;7.03;1.60;;;8.60;71.60;;;;;;5009742;28;20105;-73
2021/03/29 05:02:32;;;;;;;7.60;1.57;;;8.60;71.80;;;;;;5010582;28;20034;-73
2021/03/29 05:04:57;;;;;;;6.03;1.63;;;8.60;71.90;;;;;;4988002;28;20549;-73
2021/03/29 05:07:23;;;;;;;5.80;1.53;;;8.60;72.00;;;;;;5002795;28;20038;-72
2021/03/29 05:09:49;;;;;;;8.90;1.67;;;8.60;72.10;;;;;;4995611;28;20452;-72
2021/03/29 05:12:22;;;;;;;5.20;1.77;;;8.60;72.10;;;;;;4991539;28;20038;-73
2021/03/29 05:14:47;;;;;;;;;;;8.60;72.10;;;;;;5009216;28;20034;-73
2021/03/29 05:17:13;;;;;;;5.93;1.77;;;8.60;72.10;;;;;;5008465;28;19917;-74
2021/03/29 05:19:39;;;;;;;5.13;1.80;;;8.60;72.10;;;;;;4992287;28;20034;-73
2021/03/29 05:22:06;;;;;;;7.63;1.60;;;8.60;72.30;;;;;;5008529;28;20044;-73
2021/03/29 05:24:33;;;;;;;6.80;1.83;;;8.70;72.30;;;;;;4990100;28;21107;-78
2021/03/29 05:26:59;;;;;;;7.00;1.80;;;8.70;72.20;;;;;;4990942;28;20093;-75
2021/03/29 05:29:27;;;;;;;6.37;2.10;;;8.70;72.20;;;;;;5010314;28;20030;-73
2021/03/29 05:31:56;;;;;;;9.63;1.80;;;8.80;72.10;;;;;;4990591;28;20120;-74
2021/03/29 05:34:24;;;;;;;6.03;1.57;;;8.80;72.10;;;;;;5009418;28;20037;-73
2021/03/29 05:36:50;;;;;;;7.00;1.47;;;9.00;72.10;;;;;;4990132;28;20041;-74
2021/03/29 05:39:15;;;;;;;9.97;1.77;;;9.10;71.80;;;;;;4992923;28;20551;-73
2021/03/29 05:41:42;;;;;;;5.80;1.40;;;9.30;71.40;;;;;;5014371;28;20034;-73
2021/03/29 05:44:10;;;;;;;6.93;1.60;;;9.60;71.10;;;;;;4993977;28;20080;-73
2021/03/29 05:46:40;;;;;;;6.37;1.87;;;9.90;70.50;;;;;;5012930;28;20072;-75
2021/03/29 05:49:07;;;;;;;7.17;1.77;;;10.30;69.10;;;;;;5013332;28;20018;-74
2021/03/29 05:51:39;;;;;;;8.53;2.00;;;10.80;68.20;;;;;;4979344;28;20033;-73
2021/03/29 05:54:06;;;;;;;8.60;2.10;;;11.40;66.60;;;;;;5011717;28;20038;-75
2021/03/29 05:56:39;;;;;;;6.17;1.80;;;11.90;64.60;;;;;;5011563;28;20042;-74
2021/03/29 05:59:18;;;;;;;6.95;1.40;;;12.30;63.70;;;;;;5012743;28;20282;-73
2021/03/29 06:01:49;;;;;;;5.37;1.27;;;12.80;62.70;;;;;;5012842;28;20112;-73
2021/03/29 06:04:16;;;;;;;6.53;1.30;;;13.20;61.10;;;;;;5012043;28;20030;-73
2021/03/29 06:06:43;;;;;;;4.67;1.23;;;13.50;60.40;;;;;;5013500;28;20505;-75
2021/03/29 06:09:09;;;;;;;6.07;1.43;;;13.80;60.00;;;;;;4993002;28;20648;-74
2021/03/29 06:11:38;;;;;;;6.93;1.30;;;14.30;59.10;;;;;;5011548;28;20026;-73
2021/03/29 06:14:16;;;;;;;5.05;1.60;;;14.90;57.50;;;;;;5011870;28;20092;-74
2021/03/29 06:17:05;;;;;;;6.93;1.60;;;15.50;54.60;;;;;;5013411;28;20033;-73
2021/03/29 06:19:47;;;;;;;5.10;1.23;;;16.00;53.50;;;;;;4997379;28;20486;-75
2021/03/29 06:22:15;;;;;;;9.32;2.00;;;16.50;51.60;;;;;;4993227;28;20061;-74
2021/03/29 06:25:10;;;;;;;6.38;1.20;;;16.70;50.90;;;;;;4993359;28;20034;-74
2021/03/29 06:27:39;;;;;;;5.50;1.30;;;17.00;50.60;;;;;;4987890;28;20037;-74
2021/03/29 06:30:35;;;;;;;6.25;1.33;;;17.20;49.20;;;;;;4993747;28;20034;-74
2021/03/29 06:33:08;;;;;;;6.78;1.60;;;17.40;48.40;;;;;;4990448;28;20096;-74
2021/03/29 06:35:37;;;;;;;5.68;1.25;;;17.70;48.00;;;;;;4994863;28;20504;-72
2021/03/29 06:38:09;;;;;;;10.18;1.55;;;17.90;47.20;;;;;;5011890;28;20069;-72
2021/03/29 06:40:58;;;;;;;9.80;1.80;;;17.60;47.10;;;;;;5012019;28;20034;-72
2021/03/29 06:43:31;;;;;;;8.43;1.50;;;17.30;47.90;;;;;;5000985;28;20120;-72
2021/03/29 06:46:05;;;;;;;7.55;1.20;;;17.30;47.80;;;;;;5010358;28;20084;-74
2021/03/29 06:48:33;;;;;;;8.48;1.30;;;17.60;47.40;;;;;;5012887;28;20034;-73
2021/03/29 06:51:11;;;;;;;8.50;1.88;;;18.10;47.20;;;;;;4991419;28;20377;-79
2021/03/29 06:53:58;;;;;;;5.50;1.10;;;18.60;45.50;;;;;;5007851;28;20042;-74
2021/03/29 06:56:30;;;;;;;6.78;1.45;;;18.50;45.50;;;;;;5005067;28;20104;-73
2021/03/29 06:59:07;;;;;;;7.30;1.60;;;18.30;44.70;;;;;;5011917;28;20029;-79
2021/03/29 07:01:45;;;;;;;5.90;1.95;;;18.20;46.10;;;;;;4990877;28;20120;-74
2021/03/29 07:04:10;;;;;;;6.68;1.88;;;18.10;46.40;;;;;;4991903;28;20018;-73
2021/03/29 07:06:37;;;;;;;7.85;1.83;;;18.10;45.70;;;;;;4986162;28;20034;-73
2021/03/29 07:11:29;;;;;;;12.00;4.63;;;18.90;45.20;;;;;;5003012;28;20142;-73
2021/03/29 07:13:56;;;;;;;10.57;2.88;;;19.40;44.50;;;;;;5001114;28;20157;-74
2021/03/29 07:16:27;;;;;;;7.32;2.78;;;20.00;43.30;;;;;;5008098;28;20034;-73
2021/03/29 07:19:01;;;;;;;6.40;2.08;;;20.40;42.30;;;;;;5009231;28;20057;-76
2021/03/29 07:21:28;;;;;;;9.98;2.20;;;20.60;41.30;;;;;;5003104;28;20034;-73
2021/03/29 07:24:03;;;;;;;7.05;2.22;;;20.80;40.80;;;;;;5008469;28;20033;-73
2021/03/29 07:26:42;;;;;;;10.32;2.30;;;21.10;40.40;;;;;;4991644;28;20406;-72
2021/03/29 07:29:24;;;;;;;10.10;3.35;;;21.60;39.70;;;;;;5007094;28;20022;-73
2021/03/29 07:31:55;;;;;;;9.73;4.85;;;21.70;39.50;;;;;;5002646;28;20022;-73
2021/03/29 07:34:48;;;;;;;7.43;2.75;;;22.00;39.60;;;;;;5007800;28;20377;-75
2021/03/29 07:37:29;;;;;;;9.15;2.83;;;22.30;38.70;;;;;;4973941;28;20042;-73
2021/03/29 07:39:55;;;;;;;9.02;3.10;;;22.60;38.00;;;;;;4980681;28;20031;-73
2021/03/29 07:42:24;;;;;;;12.07;6.70;;;22.80;37.60;;;;;;5003328;28;20252;-74
2021/03/29 07:44:57;;;;;;;11.02;4.47;;;22.80;37.60;;;;;;5010861;28;20028;-73
2021/03/29 07:47:53;;;;;;;10.23;3.75;;;23.20;37.40;;;;;;5007921;28;20053;-75
2021/03/29 07:50:25;;;;;;;9.75;3.80;;;23.30;36.30;;;;;;4977641;28;20030;-73
2021/03/29 07:52:56;;;;;;;8.35;3.38;;;23.40;36.80;;;;;;5010491;28;20105;-74
2021/03/29 07:55:27;;;;;;;7.78;3.13;;;23.80;36.10;;;;;;5007675;28;20101;-73
2021/03/29 07:57:53;;;;;;;8.38;3.67;;;24.00;35.70;;;;;;4990986;28;20042;-73
2021/03/29 08:00:25;;;;;;;9.63;3.55;;;24.20;35.70;;;;;;4998296;28;20437;-75
2021/03/29 08:02:54;;;;;;;11.13;5.22;;;24.40;35.20;;;;;;4999620;28;20032;-75
2021/03/29 08:05:40;;;;;;;10.15;5.45;;;24.50;35.30;;;;;;4985111;28;20053;-78
2021/03/29 08:11:00;;;;;;;10.10;5.53;;;25.00;34.80;;;;;;5003363;28;20065;-75
2021/03/29 08:13:58;;;;;;;11.32;3.78;;;25.40;34.60;;;;;;4982848;28;20022;-75
2021/03/29 08:16:24;;;;;;;9.18;3.97;;;25.40;33.80;;;;;;5004400;28;20029;-74
2021/03/29 08:19:08;;;;;;;7.00;3.03;;;25.20;33.70;;;;;;5010716;28;20037;-74
2021/03/29 08:22:05;;;;;;;6.30;2.72;;;25.40;33.80;;;;;;5009811;28;20026;-74
2021/03/29 08:24:40;;;;;;;9.15;4.03;;;25.70;33.10;;;;;;5010825;28;20052;-74
2021/03/29 08:27:27;;;;;;;6.55;3.33;;;26.00;33.20;;;;;;5008982;28;20468;-80
2021/03/29 08:29:55;;;;;;;11.00;6.63;;;26.20;32.50;;;;;;4993949;28;20065;-75
2021/03/29 08:32:31;;;;;;;6.88;3.85;;;26.30;32.20;;;;;;5005735;28;20548;-75
2021/03/29 08:35:18;;;;;;;10.15;5.45;;;26.30;31.50;;;;;;4978475;28;20029;-75
2021/03/29 08:37:47;;;;;;;8.02;3.63;;;26.10;31.70;;;;;;5010085;28;20026;-75
2021/03/29 08:40:17;;;;;;;8.18;3.28;;;25.80;31.40;;;;;;5010412;28;20568;-75
2021/03/29 08:42:46;;;;;;;6.97;1.92;;;25.70;31.80;;;;;;5009285;28;20065;-74
2021/03/29 08:45:15;;;;;;;6.25;4.45;;;25.70;31.30;;;;;;4991356;28;20131;-75
2021/03/29 08:47:42;;;;;;;7.47;4.63;;;25.60;31.60;;;;;;5009756;28;20045;-74
2021/03/29 08:50:14;;;;;;;8.20;2.45;;;25.60;31.30;;;;;;4992737;28;20069;-81
2021/03/29 08:53:00;;;;;;;7.47;2.95;;;26.00;30.70;;;;;;5010274;28;20022;-75
2021/03/29 08:55:34;;;;;;;4.07;2.08;;;26.30;30.40;;;;;;5009815;28;20030;-75
2021/03/29 08:58:01;;;;;;;4.35;1.83;;;26.40;30.20;;;;;;5009442;28;20048;-75
2021/03/29 09:00:33;;;;;;;7.25;2.08;;;26.50;29.90;;;;;;5009814;28;20018;-75
2021/03/29 09:02:58;;;;;;;5.70;2.10;;;26.60;30.00;;;;;;4989253;28;20026;-75
2021/03/29 09:05:25;;;;;;;5.85;1.65;;;26.70;29.70;;;;;;4991901;28;20032;-75
2021/03/29 09:07:52;;;;;;;4.88;1.27;;;26.80;29.60;;;;;;5005975;28;20423;-76
2021/03/29 09:10:21;;;;;;;6.30;2.97;;;26.90;29.30;;;;;;4990175;28;20129;-78
2021/03/29 09:12:59;;;;;;;8.57;2.00;;;27.10;29.50;;;;;;5009786;28;20033;-75
2021/03/29 09:15:27;;;;;;;8.10;2.35;;;27.40;29.50;;;;;;5016522;28;20505;-75
2021/03/29 09:18:09;;;;;;;4.32;1.50;;;27.80;29.30;;;;;;5016692;28;20548;-76
2021/03/29 09:20:37;;;;;;;6.05;2.17;;;27.80;28.50;;;;;;5016526;28;20037;-75
2021/03/29 09:23:03;;;;;;;5.03;1.63;;;27.80;28.70;;;;;;5016998;28;20034;-75
2021/03/29 09:25:38;;;;;;;4.35;1.50;;;27.90;28.30;;;;;;4997056;28;20120;-75
2021/03/29 09:28:20;;;;;;;3.90;1.35;;;28.00;27.90;;;;;;4982865;28;20053;-75
2021/03/29 09:30:55;;;;;;;4.20;0.90;;;27.90;27.40;;;;;;5016347;28;20018;-75
2021/03/29 09:33:21;;;;;;;3.80;1.20;;;27.80;26.60;;;;;;4998641;28;20030;-75
2021/03/29 09:35:48;;;;;;;5.07;1.20;;;27.60;27.30;;;;;;5015452;28;20045;-75
2021/03/29 09:38:15;;;;;;;3.72;1.17;;;27.80;27.50;;;;;;5016059;28;20486;-81
2021/03/29 09:40:41;;;;;;;5.45;1.30;;;28.00;27.60;;;;;;4983609;28;20123;-74
2021/03/29 09:43:18;;;;;;;3.92;1.30;;;27.90;27.10;;;;;;5016454;28;20030;-73
2021/03/29 09:45:46;;;;;;;4.60;0.93;;;28.00;27.10;;;;;;5016983;28;20566;-75
2021/03/29 09:48:12;;;;;;;3.08;1.00;;;28.20;27.20;;;;;;5015635;28;20080;-74
2021/03/29 09:50:40;;;;;;;4.72;1.40;;;28.10;26.20;;;;;;5016374;28;20498;-74
2021/03/29 09:53:24;;;;;;;4.65;1.08;;;28.00;27.00;;;;;;5016396;28;20042;-74
2021/03/29 09:55:57;;;;;;;2.45;0.90;;;28.10;26.20;;;;;;5015708;28;20034;-75
2021/03/29 09:58:29;;;;;;;3.58;1.10;;;28.30;26.20;;;;;;5015415;28;20034;-74
2021/03/29 10:00:57;;;;;;;;;;;28.40;25.90;;;;;;5015816;28;20037;-74
2021/03/29 10:03:23;;;;;;;3.90;0.80;;;28.40;25.70;;;;;;4999766;28;19913;-74
2021/03/29 10:05:53;;;;;;;4.80;0.90;;;28.60;25.80;;;;;;5008010;28;20115;-74
2021/03/29 10:08:32;;;;;;;3.70;1.17;;;28.50;25.40;;;;;;5015612;28;20038;-77
2021/03/29 10:11:02;;;;;;;3.88;1.20;;;28.70;25.90;;;;;;5016223;28;20486;-75
2021/03/29 10:13:33;;;;;;;5.15;1.08;;;28.60;25.20;;;;;;5015841;28;20037;-74
2021/03/29 10:16:22;;;;;;;2.83;1.00;;;28.50;25.70;;;;;;5016217;28;20030;-73
2021/03/29 10:19:08;;;;;;;3.72;0.90;;;28.60;25.70;;;;;;5016903;28;20022;-75
2021/03/29 10:21:54;;;;;;;4.38;0.90;;;28.70;25.70;;;;;;5015470;28;20029;-74
2021/03/29 10:24:20;;;;;;;4.30;1.05;;;28.70;24.90;;;;;;5015671;28;20026;-81
2021/03/29 10:27:00;;;;;;;3.33;1.00;;;28.50;25.40;;;;;;4995136;28;20050;-74
2021/03/29 10:29:38;;;;;;;4.70;1.20;;;28.70;25.40;;;;;;4995523;28;20029;-78
2021/03/29 10:32:18;;;;;;;3.15;1.10;;;28.60;25.00;;;;;;5002894;28;20404;-74
2021/03/29 10:34:48;;;;;;;2.95;0.90;;;28.60;25.20;;;;;;5013454;28;20017;-74
2021/03/29 10:37:26;;;;;;;3.72;0.90;;;28.70;25.40;;;;;;5012669;28;20042;-73
2021/03/29 10:39:53;;;;;;;4.18;0.82;;;28.80;25.10;;;;;;4993665;28;20031;-76
2021/03/29 10:42:21;;;;;;;5.05;1.10;;;28.70;25.10;;;;;;5011608;28;20109;-73
2021/03/29 10:44:48;;;;;;;4.18;1.00;;;28.50;25.20;;;;;;5012612;28;20030;-73
2021/03/29 10:47:14;;;;;;;3.47;0.80;;;28.40;25.20;;;;;;5010633;28;20091;-75
2021/03/29 10:49:40;;;;;;;3.45;0.70;;;28.20;25.20;;;;;;4988027;28;20033;-74
2021/03/29 10:52:07;;;;;;;3.20;0.90;;;28.00;25.10;;;;;;5011964;28;20101;-75
2021/03/29 10:54:32;;;;;;;2.72;0.73;;;28.00;25.50;;;;;;4990233;28;20042;-75
2021/03/29 10:56:58;;;;;;;5.70;0.93;;;28.00;24.70;;;;;;5000301;28;20049;-74
2021/03/29 10:59:24;;;;;;;4.13;0.90;;;27.90;25.10;;;;;;5004369;28;20034;-73
2021/03/29 11:01:50;;;;;;;4.47;1.20;;;27.80;25.00;;;;;;4992638;28;20372;-73
2021/03/29 11:04:16;;;;;;;3.40;1.02;;;27.80;25.30;;;;;;5001555;28;20377;-73
2021/03/29 11:06:41;;;;;;;3.05;0.90;;;28.00;25.60;;;;;;5012061;28;20026;-76
2021/03/29 11:09:07;;;;;;;5.80;0.90;;;28.10;24.60;;;;;;5012042;28;20062;-74
2021/03/29 11:11:34;;;;;;;3.95;0.60;;;28.10;24.90;;;;;;4994258;28;20540;-75
2021/03/29 11:14:00;;;;;;;4.20;0.90;;;28.00;24.70;;;;;;5012753;28;20500;-74
2021/03/29 11:16:26;;;;;;;5.85;0.88;;;28.00;24.80;;;;;;5012534;28;20038;-75
2021/03/29 11:18:52;;;;;;;3.25;0.90;;;28.00;24.70;;;;;;5012227;28;20018;-74
2021/03/29 11:21:18;;;;;;;2.75;0.93;;;27.70;24.50;;;;;;5007916;28;20137;-73
2021/03/29 11:23:44;;;;;;;3.30;0.90;;;27.60;25.20;;;;;;4995812;28;20076;-74
2021/03/29 11:26:09;;;;;;;2.85;0.90;;;27.70;25.30;;;;;;5002112;28;20065;-74
2021/03/29 11:28:35;;;;;;;3.17;1.08;;;27.80;25.10;;;;;;5008620;28;20026;-74
2021/03/29 11:31:02;;;;;;;6.40;1.85;;;27.90;25.30;;;;;;5011203;28;20116;-75
2021/03/29 11:33:27;;;;;;;6.60;1.23;;;27.90;24.20;;;;;;5003071;28;20153;-74
2021/03/29 11:35:53;;;;;;;5.95;2.55;;;27.60;24.10;;;;;;4972073;28;20572;-74
2021/03/29 11:38:19;;;;;;;3.30;1.40;;;27.40;24.70;;;;;;4983892;28;20470;-73
2021/03/29 11:40:45;;;;;;;2.88;0.80;;;27.20;24.50;;;;;;5010030;28;20033;-74
2021/03/29 11:43:11;;;;;;;5.25;1.10;;;27.00;25.00;;;;;;5011529;28;20049;-73
2021/03/29 11:45:36;;;;;;;5.88;1.00;;;26.90;24.90;;;;;;4978760;28;20069;-80
2021/03/29 11:48:04;;;;;;;4.78;0.93;;;27.10;25.00;;;;;;4977782;28;20034;-74
2021/03/29 11:50:30;;;;;;;3.83;0.80;;;27.10;24.40;;;;;;4985127;28;20053;-74
2021/03/29 11:52:56;;;;;;;2.75;0.90;;;26.70;24.50;;;;;;4992799;28;20030;-74
2021/03/29 11:55:22;;;;;;;4.57;0.88;;;26.70;24.60;;;;;;5011460;28;20091;-73
2021/03/29 11:57:49;;;;;;;4.00;1.23;;;26.80;24.50;;;;;;4990212;28;20044;-74
2021/03/29 12:05:30;;;;;;;3.63;0.98;;;27.10;24.60;;;;;;5011316;28;20037;-74
2021/03/29 12:08:22;;;;;;;4.20;1.10;;;27.10;24.40;;;;;;5010346;28;20030;-74
2021/03/29 12:13:33;;;;;;;2.25;0.90;;;27.10;24.70;;;;;;5011361;28;20080;-74
2021/03/29 12:16:01;;;;;;;6.03;0.90;;;27.00;25.00;;;;;;5009831;28;20947;-74
2021/03/29 12:18:41;;;;;;;3.45;1.05;;;27.00;24.60;;;;;;5011378;28;20030;-74
2021/03/29 12:21:11;;;;;;;4.40;1.10;;;26.90;24.50;;;;;;4993385;28;20041;-74
2021/03/29 12:23:41;;;;;;;4.30;1.30;;;26.90;24.90;;;;;;5010537;28;20057;-79
2021/03/29 12:26:08;;;;;;;3.45;0.95;;;26.90;24.90;;;;;;5010759;28;20053;-75
2021/03/29 12:28:36;;;;;;;3.75;1.10;;;26.80;25.00;;;;;;5003309;28;20034;-74
2021/03/29 12:31:03;;;;;;;2.25;1.00;;;26.50;25.30;;;;;;5007865;28;20033;-75
2021/03/29 12:33:30;;;;;;;3.55;0.80;;;26.60;25.50;;;;;;4992984;28;20022;-74
2021/03/29 12:35:57;;;;;;;2.22;0.82;;;26.60;25.20;;;;;;5010262;28;20037;-74
2021/03/29 12:38:25;;;;;;;3.33;1.20;;;26.40;24.50;;;;;;5011251;28;20045;-74
2021/03/29 12:40:56;;;;;;;3.45;0.70;;;26.30;25.50;;;;;;5010133;28;20029;-74
2021/03/29 12:43:46;;;;;;;5.03;1.02;;;26.40;25.40;;;;;;5010571;28;20086;-76
2021/03/29 12:46:18;;;;;;;4.28;1.45;;;26.40;25.00;;;;;;4990743;28;20035;-74
2021/03/29 12:48:44;;;;;;;2.13;0.70;;;26.20;25.20;;;;;;4972288;28;20030;-78
2021/03/29 12:51:12;;;;;;;3.45;0.70;;;26.10;24.00;;;;;;4990721;28;20048;-73
2021/03/29 12:53:37;;;;;;;6.75;0.88;;;25.90;23.70;;;;;;4988544;28;20347;-73
2021/03/29 12:56:04;;;;;;;4.28;1.00;;;25.80;24.20;;;;;;4991735;28;20092;-73
2021/03/29 12:58:34;;;;;;;3.58;0.80;;;25.70;24.10;;;;;;5010429;28;20022;-74
2021/03/29 13:01:05;;;;;;;3.05;0.68;;;25.60;24.30;;;;;;5009699;28;20030;-74
2021/03/29 13:03:35;;;;;;;2.97;0.68;;;25.70;24.40;;;;;;5010588;28;20080;-73
2021/03/29 13:06:37;;;;;;;3.45;0.82;;;25.60;24.50;;;;;;5009613;28;20532;-74
2021/03/29 13:09:00;;;;;;;4.22;0.88;;;25.80;24.10;;;;;;4993621;28;20050;-75
2021/03/29 13:11:30;;;;;;;1.83;0.60;;;25.80;24.00;;;;;;5010079;28;20049;-76
2021/03/29 13:13:59;;;;;;;2.85;0.60;;;25.60;23.90;;;;;;5007857;28;20156;-74
2021/03/29 13:16:25;;;;;;;1.50;0.60;;;25.60;24.30;;;;;;5004893;28;20033;-73
2021/03/29 13:18:51;;;;;;;3.03;0.70;;;25.60;24.30;;;;;;4988883;28;20037;-73